sensor_id;sensor_type;location;lat;lon;timestamp;temperature;humidity
10702;DHT22;5402;50.004;8.246;2024-03-23T00:53:05;9.60;99.90
10702;DHT22;5402;50.004;8.246;2024-03-23T00:55:31;9.50;99.90
10702;DHT22;5402;50.004;8.246;2024-03-23T00:57:58;9.40;99.90
10702;DHT22;5402;50.004;8.246;2024-03-23T01:00:24;9.40;99.90
10702;DHT22;5402;50.004;8.246;2024-03-23T01:02:50;9.30;99.90
10702;DHT22;5402;50.004;8.246;2024-03-23T01:05:16;9.10;99.90
10702;DHT22;5402;50.004;8.246;2024-03-23T01:07:43;9.10;99.90
10702;DHT22;5402;50.004;8.246;2024-03-23T01:10:10;9.00;99.90
10702;DHT22;5402;50.004;8.246;2024-03-23T01:12:37;8.90;99.90
10702;DHT22;5402;50.004;8.246;2024-03-23T01:15:03;8.80;99.90
10702;DHT22;5402;50.004;8.246;2024-03-23T01:17:30;8.80;99.90
10702;DHT22;5402;50.004;8.246;2024-03-23T01:19:55;8.70;99.90
10702;DHT22;5402;50.004;8.246;2024-03-23T01:22:22;8.70;99.90
10702;DHT22;5402;50.004;8.246;2024-03-23T01:24:48;8.80;99.90
10702;DHT22;5402;50.004;8.246;2024-03-23T01:27:16;8.90;99.90
10702;DHT22;5402;50.004;8.246;2024-03-23T01:29:41;8.80;99.90
10702;DHT22;5402;50.004;8.246;2024-03-23T01:32:08;8.70;99.90
10702;DHT22;5402;50.004;8.246;2024-03-23T01:34:34;8.70;99.90
10702;DHT22;5402;50.004;8.246;2024-03-23T01:37:01;8.60;99.90
10702;DHT22;5402;50.004;8.246;2024-03-23T01:39:28;8.70;99.90
10702;DHT22;5402;50.004;8.246;2024-03-23T01:41:54;8.70;99.90
10702;DHT22;5402;50.004;8.246;2024-03-23T01:44:22;8.70;99.90
10702;DHT22;5402;50.004;8.246;2024-03-23T01:46:49;8.80;99.90
10702;DHT22;5402;50.004;8.246;2024-03-23T01:49:14;8.70;99.90
10702;DHT22;5402;50.004;8.246;2024-03-23T01:51:42;8.80;99.90
10702;DHT22;5402;50.004;8.246;2024-03-23T01:54:09;8.80;99.90
10702;DHT22;5402;50.004;8.246;2024-03-23T01:56:36;8.80;99.90
10702;DHT22;5402;50.004;8.246;2024-03-23T01:59:02;8.70;99.90
10702;DHT22;5402;50.004;8.246;2024-03-23T02:01:30;8.80;99.90
10702;DHT22;5402;50.004;8.246;2024-03-23T02:03:57;8.80;99.90
10702;DHT22;5402;50.004;8.246;2024-03-23T02:06:25;9.60;99.90
10702;DHT22;5402;50.004;8.246;2024-03-23T02:08:52;8.80;99.90
10702;DHT22;5402;50.004;8.246;2024-03-23T02:11:19;8.70;99.90
10702;DHT22;5402;50.004;8.246;2024-03-23T02:13:45;8.70;99.90
10702;DHT22;5402;50.004;8.246;2024-03-23T02:16:12;8.70;99.90
10702;DHT22;5402;50.004;8.246;2024-03-23T02:18:40;8.80;99.90
10702;DHT22;5402;50.004;8.246;2024-03-23T02:21:07;8.70;99.90
10702;DHT22;5402;50.004;8.246;2024-03-23T02:23:34;8.60;99.90
10702;DHT22;5402;50.004;8.246;2024-03-23T02:26:01;8.60;99.90
10702;DHT22;5402;50.004;8.246;2024-03-23T02:28:28;9.20;99.90
10702;DHT22;5402;50.004;8.246;2024-03-23T02:30:56;8.70;99.90
10702;DHT22;5402;50.004;8.246;2024-03-23T02:33:22;8.70;99.90
10702;DHT22;5402;50.004;8.246;2024-03-23T02:35:49;8.60;99.90
10702;DHT22;5402;50.004;8.246;2024-03-23T02:38:15;8.50;99.90
10702;DHT22;5402;50.004;8.246;2024-03-23T02:40:43;8.50;99.90
10702;DHT22;5402;50.004;8.246;2024-03-23T02:43:09;8.40;99.90
10702;DHT22;5402;50.004;8.246;2024-03-23T02:45:36;8.50;99.90
10702;DHT22;5402;50.004;8.246;2024-03-23T02:48:02;9.10;99.90
10702;DHT22;5402;50.004;8.246;2024-03-23T02:50:29;8.50;99.90
10702;DHT22;5402;50.004;8.246;2024-03-23T02:52:56;8.50;99.90
10702;DHT22;5402;50.004;8.246;2024-03-23T02:55:23;9.10;99.90
10702;DHT22;5402;50.004;8.246;2024-03-23T02:57:50;8.60;99.90
10702;DHT22;5402;50.004;8.246;2024-03-23T03:00:17;9.40;99.90
10702;DHT22;5402;50.004;8.246;2024-03-23T03:02:43;8.70;99.90
10702;DHT22;5402;50.004;8.246;2024-03-23T03:05:10;8.70;99.90
10702;DHT22;5402;50.004;8.246;2024-03-23T03:07:36;8.80;99.90
10702;DHT22;5402;50.004;8.246;2024-03-23T03:10:05;8.80;99.90
10702;DHT22;5402;50.004;8.246;2024-03-23T03:12:31;8.80;99.90
10702;DHT22;5402;50.004;8.246;2024-03-23T03:14:59;8.90;99.90
10702;DHT22;5402;50.004;8.246;2024-03-23T03:17:25;8.80;99.90
10702;DHT22;5402;50.004;8.246;2024-03-23T03:19:52;8.80;99.90
10702;DHT22;5402;50.004;8.246;2024-03-23T03:22:21;8.80;99.90
10702;DHT22;5402;50.004;8.246;2024-03-23T03:24:47;8.80;99.90
10702;DHT22;5402;50.004;8.246;2024-03-23T03:27:13;8.80;99.90
10702;DHT22;5402;50.004;8.246;2024-03-23T03:29:40;8.80;99.90
10702;DHT22;5402;50.004;8.246;2024-03-23T03:32:07;8.80;99.90
10702;DHT22;5402;50.004;8.246;2024-03-23T03:34:34;8.90;99.90
10702;DHT22;5402;50.004;8.246;2024-03-23T03:37:00;8.80;99.90
10702;DHT22;5402;50.004;8.246;2024-03-23T03:39:26;8.90;99.90
10702;DHT22;5402;50.004;8.246;2024-03-23T03:41:52;8.90;99.90
10702;DHT22;5402;50.004;8.246;2024-03-23T03:44:19;9.00;99.90
10702;DHT22;5402;50.004;8.246;2024-03-23T03:46:44;9.00;99.90
10702;DHT22;5402;50.004;8.246;2024-03-23T03:49:12;9.00;99.90
10702;DHT22;5402;50.004;8.246;2024-03-23T03:51:38;9.10;99.90
10702;DHT22;5402;50.004;8.246;2024-03-23T03:54:05;9.00;99.90
10702;DHT22;5402;50.004;8.246;2024-03-23T03:56:31;8.90;99.90
10702;DHT22;5402;50.004;8.246;2024-03-23T03:58:58;8.90;99.90
10702;DHT22;5402;50.004;8.246;2024-03-23T04:01:23;8.80;99.90
10702;DHT22;5402;50.004;8.246;2024-03-23T04:03:50;8.70;99.90
10702;DHT22;5402;50.004;8.246;2024-03-23T04:06:20;8.70;99.90
10702;DHT22;5402;50.004;8.246;2024-03-23T04:08:47;8.50;99.90
10702;DHT22;5402;50.004;8.246;2024-03-23T04:11:12;8.40;99.90
10702;DHT22;5402;50.004;8.246;2024-03-23T04:13:39;8.30;99.90
10702;DHT22;5402;50.004;8.246;2024-03-23T04:16:07;8.20;99.90
10702;DHT22;5402;50.004;8.246;2024-03-23T04:18:34;8.10;99.90
10702;DHT22;5402;50.004;8.246;2024-03-23T04:21:00;8.00;99.90
10702;DHT22;5402;50.004;8.246;2024-03-23T04:23:28;8.00;99.90
10702;DHT22;5402;50.004;8.246;2024-03-23T04:25:54;7.90;99.90
10702;DHT22;5402;50.004;8.246;2024-03-23T04:28:20;7.80;99.90
10702;DHT22;5402;50.004;8.246;2024-03-23T04:30:46;7.70;99.90
10702;DHT22;5402;50.004;8.246;2024-03-23T04:33:13;7.70;99.90
10702;DHT22;5402;50.004;8.246;2024-03-23T04:35:39;7.60;99.90
10702;DHT22;5402;50.004;8.246;2024-03-23T04:38:05;7.60;99.90
10702;DHT22;5402;50.004;8.246;2024-03-23T04:40:33;7.60;99.90
10702;DHT22;5402;50.004;8.246;2024-03-23T04:43:00;7.50;99.90
10702;DHT22;5402;50.004;8.246;2024-03-23T04:45:27;7.50;99.90
10702;DHT22;5402;50.004;8.246;2024-03-23T04:47:54;7.50;99.90
10702;DHT22;5402;50.004;8.246;2024-03-23T04:50:20;7.50;99.90
10702;DHT22;5402;50.004;8.246;2024-03-23T04:52:46;7.50;99.90
10702;DHT22;5402;50.004;8.246;2024-03-23T04:55:13;7.50;99.90
10702;DHT22;5402;50.004;8.246;2024-03-23T04:57:41;7.50;99.90
10702;DHT22;5402;50.004;8.246;2024-03-23T05:00:08;7.50;99.90
10702;DHT22;5402;50.004;8.246;2024-03-23T05:02:43;7.50;99.90
10702;DHT22;5402;50.004;8.246;2024-03-23T05:05:09;7.50;99.90
10702;DHT22;5402;50.004;8.246;2024-03-23T05:07:35;7.40;99.90
10702;DHT22;5402;50.004;8.246;2024-03-23T05:10:02;7.40;99.90
10702;DHT22;5402;50.004;8.246;2024-03-23T05:12:28;7.40;99.90
10702;DHT22;5402;50.004;8.246;2024-03-23T05:14:57;7.40;99.90
10702;DHT22;5402;50.004;8.246;2024-03-23T05:17:22;7.40;99.90
10702;DHT22;5402;50.004;8.246;2024-03-23T05:19:49;7.40;99.90
10702;DHT22;5402;50.004;8.246;2024-03-23T05:22:15;7.50;99.90
10702;DHT22;5402;50.004;8.246;2024-03-23T05:24:41;7.40;99.90
10702;DHT22;5402;50.004;8.246;2024-03-23T05:27:07;7.40;99.90
10702;DHT22;5402;50.004;8.246;2024-03-23T05:29:34;7.40;99.90
10702;DHT22;5402;50.004;8.246;2024-03-23T05:32:01;7.40;99.90
10702;DHT22;5402;50.004;8.246;2024-03-23T05:34:27;7.40;99.90
10702;DHT22;5402;50.004;8.246;2024-03-23T05:36:54;7.30;99.90
10702;DHT22;5402;50.004;8.246;2024-03-23T05:39:21;7.30;99.90
10702;DHT22;5402;50.004;8.246;2024-03-23T05:41:47;7.30;99.90
10702;DHT22;5402;50.004;8.246;2024-03-23T05:44:14;7.20;99.90
10702;DHT22;5402;50.004;8.246;2024-03-23T05:46:40;7.20;99.90
10702;DHT22;5402;50.004;8.246;2024-03-23T05:49:08;7.10;99.90
10702;DHT22;5402;50.004;8.246;2024-03-23T05:51:34;7.10;99.90
10702;DHT22;5402;50.004;8.246;2024-03-23T05:54:01;7.10;99.90
10702;DHT22;5402;50.004;8.246;2024-03-23T05:56:27;7.00;99.90
10702;DHT22;5402;50.004;8.246;2024-03-23T05:58:53;7.00;99.90
10702;DHT22;5402;50.004;8.246;2024-03-23T06:01:19;7.00;99.90
10702;DHT22;5402;50.004;8.246;2024-03-23T06:03:46;7.00;99.90
10702;DHT22;5402;50.004;8.246;2024-03-23T06:06:13;6.90;99.90
10702;DHT22;5402;50.004;8.246;2024-03-23T06:08:39;6.90;99.90
10702;DHT22;5402;50.004;8.246;2024-03-23T06:11:06;7.00;99.90
10702;DHT22;5402;50.004;8.246;2024-03-23T06:13:32;7.00;99.90
10702;DHT22;5402;50.004;8.246;2024-03-23T06:15:59;7.00;99.90
10702;DHT22;5402;50.004;8.246;2024-03-23T06:18:26;7.00;99.90
10702;DHT22;5402;50.004;8.246;2024-03-23T06:20:51;7.00;99.90
10702;DHT22;5402;50.004;8.246;2024-03-23T06:23:19;7.00;99.90
10702;DHT22;5402;50.004;8.246;2024-03-23T06:25:45;6.90;99.90
10702;DHT22;5402;50.004;8.246;2024-03-23T06:28:12;7.00;99.90
10702;DHT22;5402;50.004;8.246;2024-03-23T06:30:38;7.00;99.90
10702;DHT22;5402;50.004;8.246;2024-03-23T06:33:05;6.90;99.90
10702;DHT22;5402;50.004;8.246;2024-03-23T06:35:31;6.90;99.90
10702;DHT22;5402;50.004;8.246;2024-03-23T06:37:58;6.90;99.90
10702;DHT22;5402;50.004;8.246;2024-03-23T06:40:25;6.90;99.90
10702;DHT22;5402;50.004;8.246;2024-03-23T06:42:51;6.90;99.90
10702;DHT22;5402;50.004;8.246;2024-03-23T06:45:17;6.90;99.90
10702;DHT22;5402;50.004;8.246;2024-03-23T06:47:48;6.90;99.90
10702;DHT22;5402;50.004;8.246;2024-03-23T06:50:14;6.80;99.90
10702;DHT22;5402;50.004;8.246;2024-03-23T06:52:41;6.80;99.90
10702;DHT22;5402;50.004;8.246;2024-03-23T06:55:07;6.70;99.90
10702;DHT22;5402;50.004;8.246;2024-03-23T06:57:36;6.80;99.90
10702;DHT22;5402;50.004;8.246;2024-03-23T07:00:02;6.80;99.90
10702;DHT22;5402;50.004;8.246;2024-03-23T07:02:29;6.80;99.90
10702;DHT22;5402;50.004;8.246;2024-03-23T07:04:55;6.80;99.90
10702;DHT22;5402;50.004;8.246;2024-03-23T07:07:22;7.00;99.90
10702;DHT22;5402;50.004;8.246;2024-03-23T07:09:48;7.20;99.90
10702;DHT22;5402;50.004;8.246;2024-03-23T07:12:15;7.20;99.90
10702;DHT22;5402;50.004;8.246;2024-03-23T07:14:42;7.30;99.90
10702;DHT22;5402;50.004;8.246;2024-03-23T07:17:08;7.30;99.90
10702;DHT22;5402;50.004;8.246;2024-03-23T07:19:34;7.30;99.90
10702;DHT22;5402;50.004;8.246;2024-03-23T07:22:01;7.20;99.90
10702;DHT22;5402;50.004;8.246;2024-03-23T07:24:26;7.30;99.90
10702;DHT22;5402;50.004;8.246;2024-03-23T07:26:53;7.30;99.90
10702;DHT22;5402;50.004;8.246;2024-03-23T07:29:19;7.30;99.90
10702;DHT22;5402;50.004;8.246;2024-03-23T07:31:47;7.30;99.90
10702;DHT22;5402;50.004;8.246;2024-03-23T07:34:13;7.30;99.90
10702;DHT22;5402;50.004;8.246;2024-03-23T07:36:40;7.30;99.90
10702;DHT22;5402;50.004;8.246;2024-03-23T07:39:06;7.20;99.90
10702;DHT22;5402;50.004;8.246;2024-03-23T07:41:33;7.20;99.90
10702;DHT22;5402;50.004;8.246;2024-03-23T07:44:01;7.10;99.90
10702;DHT22;5402;50.004;8.246;2024-03-23T07:46:27;7.20;99.90
10702;DHT22;5402;50.004;8.246;2024-03-23T07:48:54;7.20;99.90
10702;DHT22;5402;50.004;8.246;2024-03-23T07:51:22;7.40;99.90
10702;DHT22;5402;50.004;8.246;2024-03-23T07:53:48;7.50;99.90
10702;DHT22;5402;50.004;8.246;2024-03-23T07:56:16;7.60;99.90
10702;DHT22;5402;50.004;8.246;2024-03-23T07:58:43;7.70;99.90
10702;DHT22;5402;50.004;8.246;2024-03-23T08:01:11;7.60;99.90
10702;DHT22;5402;50.004;8.246;2024-03-23T08:03:38;7.70;99.90
10702;DHT22;5402;50.004;8.246;2024-03-23T08:06:10;7.60;99.90
10702;DHT22;5402;50.004;8.246;2024-03-23T08:08:36;7.60;99.90
10702;DHT22;5402;50.004;8.246;2024-03-23T08:11:03;7.70;99.90
10702;DHT22;5402;50.004;8.246;2024-03-23T08:13:29;7.90;99.90
10702;DHT22;5402;50.004;8.246;2024-03-23T08:15:57;7.90;99.90
10702;DHT22;5402;50.004;8.246;2024-03-23T08:18:22;8.00;99.90
10702;DHT22;5402;50.004;8.246;2024-03-23T08:20:56;7.80;99.90
10702;DHT22;5402;50.004;8.246;2024-03-23T08:23:23;7.90;99.90
10702;DHT22;5402;50.004;8.246;2024-03-23T08:25:50;8.20;99.90
10702;DHT22;5402;50.004;8.246;2024-03-23T08:28:15;8.40;99.90
10702;DHT22;5402;50.004;8.246;2024-03-23T08:30:42;8.50;99.90
10702;DHT22;5402;50.004;8.246;2024-03-23T08:33:08;8.40;99.90
10702;DHT22;5402;50.004;8.246;2024-03-23T08:35:35;8.60;99.90
10702;DHT22;5402;50.004;8.246;2024-03-23T08:38:01;8.70;99.90
10702;DHT22;5402;50.004;8.246;2024-03-23T08:40:29;8.80;99.90
10702;DHT22;5402;50.004;8.246;2024-03-23T08:42:55;9.00;99.90
10702;DHT22;5402;50.004;8.246;2024-03-23T08:45:21;8.90;99.90
10702;DHT22;5402;50.004;8.246;2024-03-23T08:47:47;8.90;99.90
10702;DHT22;5402;50.004;8.246;2024-03-23T08:50:14;9.20;99.90
10702;DHT22;5402;50.004;8.246;2024-03-23T08:52:40;9.40;99.90
10702;DHT22;5402;50.004;8.246;2024-03-23T08:55:07;9.60;99.90
10702;DHT22;5402;50.004;8.246;2024-03-23T08:57:34;10.00;99.90
10702;DHT22;5402;50.004;8.246;2024-03-23T09:00:02;10.00;99.90
10702;DHT22;5402;50.004;8.246;2024-03-23T09:02:28;10.20;99.90
10702;DHT22;5402;50.004;8.246;2024-03-23T09:04:54;10.40;99.90
10702;DHT22;5402;50.004;8.246;2024-03-23T09:07:20;10.40;99.90
10702;DHT22;5402;50.004;8.246;2024-03-23T09:09:47;10.50;99.90
10702;DHT22;5402;50.004;8.246;2024-03-23T09:12:13;10.30;99.90
10702;DHT22;5402;50.004;8.246;2024-03-23T09:14:41;10.50;99.90
10702;DHT22;5402;50.004;8.246;2024-03-23T09:17:06;10.40;99.90
10702;DHT22;5402;50.004;8.246;2024-03-23T09:19:33;11.10;99.90
10702;DHT22;5402;50.004;8.246;2024-03-23T09:21:59;10.70;99.90
10702;DHT22;5402;50.004;8.246;2024-03-23T09:24:26;10.80;99.90
10702;DHT22;5402;50.004;8.246;2024-03-23T09:26:52;11.30;99.90
10702;DHT22;5402;50.004;8.246;2024-03-23T09:29:18;11.40;99.90
10702;DHT22;5402;50.004;8.246;2024-03-23T09:31:46;11.50;99.90
10702;DHT22;5402;50.004;8.246;2024-03-23T09:34:12;11.10;99.90
10702;DHT22;5402;50.004;8.246;2024-03-23T09:36:38;10.80;99.90
10702;DHT22;5402;50.004;8.246;2024-03-23T09:39:06;10.50;99.90
10702;DHT22;5402;50.004;8.246;2024-03-23T09:41:33;10.40;99.90
10702;DHT22;5402;50.004;8.246;2024-03-23T09:44:00;10.30;99.90
10702;DHT22;5402;50.004;8.246;2024-03-23T09:46:27;10.20;99.90
10702;DHT22;5402;50.004;8.246;2024-03-23T09:48:55;10.20;99.90
10702;DHT22;5402;50.004;8.246;2024-03-23T09:51:21;10.40;99.90
10702;DHT22;5402;50.004;8.246;2024-03-23T09:53:50;10.10;99.90
10702;DHT22;5402;50.004;8.246;2024-03-23T09:56:17;10.20;99.90
10702;DHT22;5402;50.004;8.246;2024-03-23T09:58:44;10.10;99.90
10702;DHT22;5402;50.004;8.246;2024-03-23T10:01:10;10.20;99.90
10702;DHT22;5402;50.004;8.246;2024-03-23T10:03:43;10.40;99.90
10702;DHT22;5402;50.004;8.246;2024-03-23T10:06:10;10.30;99.90
10702;DHT22;5402;50.004;8.246;2024-03-23T10:08:36;10.20;99.90
10702;DHT22;5402;50.004;8.246;2024-03-23T10:11:13;10.30;99.90
10702;DHT22;5402;50.004;8.246;2024-03-23T10:13:42;10.20;99.90
10702;DHT22;5402;50.004;8.246;2024-03-23T10:16:08;10.30;99.90
10702;DHT22;5402;50.004;8.246;2024-03-23T10:18:37;10.30;99.90
10702;DHT22;5402;50.004;8.246;2024-03-23T10:21:10;10.20;99.90
10702;DHT22;5402;50.004;8.246;2024-03-23T10:23:38;9.90;99.90
10702;DHT22;5402;50.004;8.246;2024-03-23T10:26:16;8.00;99.90
10702;DHT22;5402;50.004;8.246;2024-03-23T10:28:54;6.30;99.90
10702;DHT22;5402;50.004;8.246;2024-03-23T10:31:22;5.10;99.90
10702;DHT22;5402;50.004;8.246;2024-03-23T10:33:49;4.90;99.90
10702;DHT22;5402;50.004;8.246;2024-03-23T10:36:17;5.10;99.90
10702;DHT22;5402;50.004;8.246;2024-03-23T10:38:46;5.10;99.90
10702;DHT22;5402;50.004;8.246;2024-03-23T10:41:12;5.30;99.90
10702;DHT22;5402;50.004;8.246;2024-03-23T10:43:39;5.40;99.90
10702;DHT22;5402;50.004;8.246;2024-03-23T10:46:05;5.50;99.90
10702;DHT22;5402;50.004;8.246;2024-03-23T10:48:32;5.60;99.90
10702;DHT22;5402;50.004;8.246;2024-03-23T10:50:58;5.60;99.90
10702;DHT22;5402;50.004;8.246;2024-03-23T10:53:28;5.70;99.90
10702;DHT22;5402;50.004;8.246;2024-03-23T10:55:54;5.80;99.90
10702;DHT22;5402;50.004;8.246;2024-03-23T10:58:24;5.80;99.90
10702;DHT22;5402;50.004;8.246;2024-03-23T11:00:52;5.90;99.90
10702;DHT22;5402;50.004;8.246;2024-03-23T11:03:36;6.20;99.90
10702;DHT22;5402;50.004;8.246;2024-03-23T11:06:03;6.20;99.90
10702;DHT22;5402;50.004;8.246;2024-03-23T11:08:33;6.30;99.90
10702;DHT22;5402;50.004;8.246;2024-03-23T11:11:16;6.30;99.90
10702;DHT22;5402;50.004;8.246;2024-03-23T11:13:44;6.20;99.90
10702;DHT22;5402;50.004;8.246;2024-03-23T11:16:16;6.20;99.90
10702;DHT22;5402;50.004;8.246;2024-03-23T11:18:43;6.20;99.90
10702;DHT22;5402;50.004;8.246;2024-03-23T11:21:10;6.40;99.90
10702;DHT22;5402;50.004;8.246;2024-03-23T11:23:38;6.40;99.90
10702;DHT22;5402;50.004;8.246;2024-03-23T11:26:07;6.90;99.90
10702;DHT22;5402;50.004;8.246;2024-03-23T11:28:34;7.40;99.90
10702;DHT22;5402;50.004;8.246;2024-03-23T11:31:00;7.50;99.90
10702;DHT22;5402;50.004;8.246;2024-03-23T11:33:26;7.70;99.90
10702;DHT22;5402;50.004;8.246;2024-03-23T11:35:52;7.70;99.90
10702;DHT22;5402;50.004;8.246;2024-03-23T11:38:19;7.70;99.90
10702;DHT22;5402;50.004;8.246;2024-03-23T11:40:47;8.10;99.90
10702;DHT22;5402;50.004;8.246;2024-03-23T11:43:15;8.20;99.90
10702;DHT22;5402;50.004;8.246;2024-03-23T11:45:43;8.70;99.90
10702;DHT22;5402;50.004;8.246;2024-03-23T11:48:11;9.10;99.90
10702;DHT22;5402;50.004;8.246;2024-03-23T11:50:38;9.10;99.90
10702;DHT22;5402;50.004;8.246;2024-03-23T11:53:08;9.50;99.90
10702;DHT22;5402;50.004;8.246;2024-03-23T11:55:49;10.00;99.90
10702;DHT22;5402;50.004;8.246;2024-03-23T11:58:17;10.40;99.90
10702;DHT22;5402;50.004;8.246;2024-03-23T12:00:49;10.50;99.90
10702;DHT22;5402;50.004;8.246;2024-03-23T12:03:16;10.60;99.90
10702;DHT22;5402;50.004;8.246;2024-03-23T12:05:48;10.40;99.90
10702;DHT22;5402;50.004;8.246;2024-03-23T12:08:18;10.40;99.90
10702;DHT22;5402;50.004;8.246;2024-03-23T12:10:47;10.50;99.90
10702;DHT22;5402;50.004;8.246;2024-03-23T12:13:17;10.50;99.90
10702;DHT22;5402;50.004;8.246;2024-03-23T12:15:43;10.80;99.90
10702;DHT22;5402;50.004;8.246;2024-03-23T12:18:10;10.80;99.90
10702;DHT22;5402;50.004;8.246;2024-03-23T12:20:37;11.30;99.90
10702;DHT22;5402;50.004;8.246;2024-03-23T12:23:09;11.50;99.90
10702;DHT22;5402;50.004;8.246;2024-03-23T12:25:35;11.80;99.90
10702;DHT22;5402;50.004;8.246;2024-03-23T12:28:03;11.70;99.90
10702;DHT22;5402;50.004;8.246;2024-03-23T12:30:33;11.70;99.90
10702;DHT22;5402;50.004;8.246;2024-03-23T12:32:59;11.90;99.90
10702;DHT22;5402;50.004;8.246;2024-03-23T12:35:26;11.90;99.90
10702;DHT22;5402;50.004;8.246;2024-03-23T12:37:52;11.90;99.90
10702;DHT22;5402;50.004;8.246;2024-03-23T12:40:18;11.70;99.90
10702;DHT22;5402;50.004;8.246;2024-03-23T12:42:44;11.60;99.90
10702;DHT22;5402;50.004;8.246;2024-03-23T12:45:11;11.30;99.90
10702;DHT22;5402;50.004;8.246;2024-03-23T12:47:40;10.50;99.90
10702;DHT22;5402;50.004;8.246;2024-03-23T12:50:07;9.30;99.90
10702;DHT22;5402;50.004;8.246;2024-03-23T12:52:33;8.10;99.90
10702;DHT22;5402;50.004;8.246;2024-03-23T12:55:00;7.30;99.90
10702;DHT22;5402;50.004;8.246;2024-03-23T12:57:26;7.00;99.90
10702;DHT22;5402;50.004;8.246;2024-03-23T12:59:53;6.80;99.90
10702;DHT22;5402;50.004;8.246;2024-03-23T13:02:19;6.60;99.90
10702;DHT22;5402;50.004;8.246;2024-03-23T13:04:49;6.30;99.90
10702;DHT22;5402;50.004;8.246;2024-03-23T13:07:16;7.10;99.90
10702;DHT22;5402;50.004;8.246;2024-03-23T13:09:42;6.50;99.90
10702;DHT22;5402;50.004;8.246;2024-03-23T13:12:08;6.70;99.90
10702;DHT22;5402;50.004;8.246;2024-03-23T13:14:35;6.90;99.90
10702;DHT22;5402;50.004;8.246;2024-03-23T13:17:05;7.20;99.90
10702;DHT22;5402;50.004;8.246;2024-03-23T13:19:32;7.30;99.90
10702;DHT22;5402;50.004;8.246;2024-03-23T13:22:00;7.60;99.90
10702;DHT22;5402;50.004;8.246;2024-03-23T13:24:27;7.80;99.90
10702;DHT22;5402;50.004;8.246;2024-03-23T13:26:54;8.00;99.90
10702;DHT22;5402;50.004;8.246;2024-03-23T13:29:22;8.20;99.90
10702;DHT22;5402;50.004;8.246;2024-03-23T13:31:49;8.40;99.90
10702;DHT22;5402;50.004;8.246;2024-03-23T13:34:16;8.40;99.90
10702;DHT22;5402;50.004;8.246;2024-03-23T13:36:42;8.70;99.90
10702;DHT22;5402;50.004;8.246;2024-03-23T13:39:11;8.70;99.90
10702;DHT22;5402;50.004;8.246;2024-03-23T13:41:38;8.70;99.90
10702;DHT22;5402;50.004;8.246;2024-03-23T13:44:05;8.70;99.90
10702;DHT22;5402;50.004;8.246;2024-03-23T13:46:31;8.80;99.90
10702;DHT22;5402;50.004;8.246;2024-03-23T13:48:58;8.90;99.90
10702;DHT22;5402;50.004;8.246;2024-03-23T13:51:24;8.90;99.90
10702;DHT22;5402;50.004;8.246;2024-03-23T13:53:54;9.00;99.90
10702;DHT22;5402;50.004;8.246;2024-03-23T13:56:21;9.10;99.90
10702;DHT22;5402;50.004;8.246;2024-03-23T13:58:48;9.30;99.90
10702;DHT22;5402;50.004;8.246;2024-03-23T14:01:15;9.40;99.90
10702;DHT22;5402;50.004;8.246;2024-03-23T14:03:42;9.60;99.90
10702;DHT22;5402;50.004;8.246;2024-03-23T14:06:09;10.10;99.90
10702;DHT22;5402;50.004;8.246;2024-03-23T14:08:36;10.10;99.90
10702;DHT22;5402;50.004;8.246;2024-03-23T14:11:04;9.80;99.90
10702;DHT22;5402;50.004;8.246;2024-03-23T14:13:32;9.90;99.90
10702;DHT22;5402;50.004;8.246;2024-03-23T14:15:58;9.80;99.90
10702;DHT22;5402;50.004;8.246;2024-03-23T14:18:26;9.70;99.90
10702;DHT22;5402;50.004;8.246;2024-03-23T14:20:52;10.10;99.90
10702;DHT22;5402;50.004;8.246;2024-03-23T14:23:19;9.70;99.90
10702;DHT22;5402;50.004;8.246;2024-03-23T14:25:45;9.90;99.90
10702;DHT22;5402;50.004;8.246;2024-03-23T14:28:12;10.00;99.90
10702;DHT22;5402;50.004;8.246;2024-03-23T14:30:43;10.20;99.90
10702;DHT22;5402;50.004;8.246;2024-03-23T14:33:10;10.10;99.90
10702;DHT22;5402;50.004;8.246;2024-03-23T14:35:36;10.30;99.90
10702;DHT22;5402;50.004;8.246;2024-03-23T14:38:03;10.40;99.90
10702;DHT22;5402;50.004;8.246;2024-03-23T14:40:29;10.30;99.90
10702;DHT22;5402;50.004;8.246;2024-03-23T14:42:56;10.30;99.90
10702;DHT22;5402;50.004;8.246;2024-03-23T14:45:22;10.30;99.90
10702;DHT22;5402;50.004;8.246;2024-03-23T14:47:51;10.20;99.90
10702;DHT22;5402;50.004;8.246;2024-03-23T14:50:17;10.40;99.90
10702;DHT22;5402;50.004;8.246;2024-03-23T14:52:44;10.30;99.90
10702;DHT22;5402;50.004;8.246;2024-03-23T14:55:11;10.30;99.90
10702;DHT22;5402;50.004;8.246;2024-03-23T14:57:37;10.10;99.90
10702;DHT22;5402;50.004;8.246;2024-03-23T15:00:06;10.20;99.90
10702;DHT22;5402;50.004;8.246;2024-03-23T15:02:33;10.10;99.90
10702;DHT22;5402;50.004;8.246;2024-03-23T15:05:01;10.10;99.90
10702;DHT22;5402;50.004;8.246;2024-03-23T15:07:29;10.10;99.90
10702;DHT22;5402;50.004;8.246;2024-03-23T15:09:54;10.10;99.90
10702;DHT22;5402;50.004;8.246;2024-03-23T15:12:21;10.00;99.90
10702;DHT22;5402;50.004;8.246;2024-03-23T15:14:47;9.90;99.90
10702;DHT22;5402;50.004;8.246;2024-03-23T15:17:14;9.80;99.90
10702;DHT22;5402;50.004;8.246;2024-03-23T15:22:38;9.80;99.90
10702;DHT22;5402;50.004;8.246;2024-03-23T15:25:05;9.50;99.90
10702;DHT22;5402;50.004;8.246;2024-03-23T15:27:30;9.40;99.90
10702;DHT22;5402;50.004;8.246;2024-03-23T15:29:57;9.20;99.90
10702;DHT22;5402;50.004;8.246;2024-03-23T15:32:23;8.80;99.90
10702;DHT22;5402;50.004;8.246;2024-03-23T15:34:50;8.50;99.90
10702;DHT22;5402;50.004;8.246;2024-03-23T15:37:16;8.50;99.90
10702;DHT22;5402;50.004;8.246;2024-03-23T15:39:44;8.60;99.90
10702;DHT22;5402;50.004;8.246;2024-03-23T15:42:10;8.70;99.90
10702;DHT22;5402;50.004;8.246;2024-03-23T15:44:37;8.80;99.90
10702;DHT22;5402;50.004;8.246;2024-03-23T15:47:03;8.90;99.90
10702;DHT22;5402;50.004;8.246;2024-03-23T15:49:30;8.80;99.90
10702;DHT22;5402;50.004;8.246;2024-03-23T15:51:57;8.40;99.90
10702;DHT22;5402;50.004;8.246;2024-03-23T15:54:25;8.30;99.90
10702;DHT22;5402;50.004;8.246;2024-03-23T15:56:52;8.20;99.90
10702;DHT22;5402;50.004;8.246;2024-03-23T15:59:19;8.00;99.90
10702;DHT22;5402;50.004;8.246;2024-03-23T16:01:45;8.00;99.90
10702;DHT22;5402;50.004;8.246;2024-03-23T16:04:11;8.10;99.90
10702;DHT22;5402;50.004;8.246;2024-03-23T16:06:38;8.10;99.90
10702;DHT22;5402;50.004;8.246;2024-03-23T16:09:07;8.00;99.90
10702;DHT22;5402;50.004;8.246;2024-03-23T16:11:34;8.20;99.90
10702;DHT22;5402;50.004;8.246;2024-03-23T16:14:02;8.20;99.90
10702;DHT22;5402;50.004;8.246;2024-03-23T16:16:28;8.40;99.90
10702;DHT22;5402;50.004;8.246;2024-03-23T16:18:55;8.40;99.90
10702;DHT22;5402;50.004;8.246;2024-03-23T16:21:20;8.50;99.90
10702;DHT22;5402;50.004;8.246;2024-03-23T16:23:47;8.50;99.90
10702;DHT22;5402;50.004;8.246;2024-03-23T16:26:13;8.50;99.90
10702;DHT22;5402;50.004;8.246;2024-03-23T16:28:41;8.60;99.90
10702;DHT22;5402;50.004;8.246;2024-03-23T16:31:10;8.70;99.90
10702;DHT22;5402;50.004;8.246;2024-03-23T16:33:38;8.70;99.90
10702;DHT22;5402;50.004;8.246;2024-03-23T16:36:05;8.80;99.90
10702;DHT22;5402;50.004;8.246;2024-03-23T16:38:32;8.80;99.90
10702;DHT22;5402;50.004;8.246;2024-03-23T16:41:01;8.80;99.90
10702;DHT22;5402;50.004;8.246;2024-03-23T16:43:28;8.80;99.90
10702;DHT22;5402;50.004;8.246;2024-03-23T16:45:56;8.60;99.90
10702;DHT22;5402;50.004;8.246;2024-03-23T16:48:26;8.50;99.90
10702;DHT22;5402;50.004;8.246;2024-03-23T16:50:53;8.40;99.90
10702;DHT22;5402;50.004;8.246;2024-03-23T16:53:19;8.40;99.90